Terminal Aerodrome Forecast
Issued by NWS Sterling, VA

Current Version | Previous Version | Graphics & Text | Print | Product List | Glossary On
Versions: 1 2 3 4 5 6 7 8 9 10 11 12 13 14
816
FTUS41 KLWX 152346
TAFMRB
TAF
KMRB 152346Z 1600/1624 VRB03KT P6SM SCT050 BKN100
     FM161200 VRB03KT 5SM -SN OVC040=

USA.gov is the U.S. government's official web portal to all federal, state and local government web resources and services.